sensor_id;sensor_type;location;lat;lon;timestamp;temperature;humidity
37052;DHT22;22964;52.272;13.356;2023-03-18T00:00:04;13.10;44.10
37052;DHT22;22964;52.272;13.356;2023-03-18T00:02:35;13.10;44.10
37052;DHT22;22964;52.272;13.356;2023-03-18T00:05:01;13.10;43.90
37052;DHT22;22964;52.272;13.356;2023-03-18T00:07:26;13.10;43.70
37052;DHT22;22964;52.272;13.356;2023-03-18T00:09:52;13.10;44.30
37052;DHT22;22964;52.272;13.356;2023-03-18T00:12:18;13.10;43.70
37052;DHT22;22964;52.272;13.356;2023-03-18T00:14:44;13.10;43.70
37052;DHT22;22964;52.272;13.356;2023-03-18T00:17:09;13.10;43.60
37052;DHT22;22964;52.272;13.356;2023-03-18T00:19:35;13.10;43.60
37052;DHT22;22964;52.272;13.356;2023-03-18T00:22:01;13.10;43.50
37052;DHT22;22964;52.272;13.356;2023-03-18T00:24:27;13.20;43.80
37052;DHT22;22964;52.272;13.356;2023-03-18T00:26:53;13.20;43.80
37052;DHT22;22964;52.272;13.356;2023-03-18T00:29:19;13.20;43.80
37052;DHT22;22964;52.272;13.356;2023-03-18T00:31:45;13.20;43.70
37052;DHT22;22964;52.272;13.356;2023-03-18T00:34:11;13.20;43.80
37052;DHT22;22964;52.272;13.356;2023-03-18T00:36:37;13.20;43.80
37052;DHT22;22964;52.272;13.356;2023-03-18T00:39:04;13.20;43.70
37052;DHT22;22964;52.272;13.356;2023-03-18T00:41:30;13.20;43.70
37052;DHT22;22964;52.272;13.356;2023-03-18T00:43:58;13.20;43.70
37052;DHT22;22964;52.272;13.356;2023-03-18T00:46:26;13.20;43.50
37052;DHT22;22964;52.272;13.356;2023-03-18T00:48:55;13.20;43.50
37052;DHT22;22964;52.272;13.356;2023-03-18T00:51:23;13.20;43.50
37052;DHT22;22964;52.272;13.356;2023-03-18T00:53:51;13.20;43.50
37052;DHT22;22964;52.272;13.356;2023-03-18T00:56:19;13.20;43.40
37052;DHT22;22964;52.272;13.356;2023-03-18T00:58:47;13.20;43.30
37052;DHT22;22964;52.272;13.356;2023-03-18T01:01:14;13.30;43.30
37052;DHT22;22964;52.272;13.356;2023-03-18T01:03:41;13.20;43.30
37052;DHT22;22964;52.272;13.356;2023-03-18T01:06:09;13.20;43.20
37052;DHT22;22964;52.272;13.356;2023-03-18T01:08:36;13.20;43.10
37052;DHT22;22964;52.272;13.356;2023-03-18T01:11:02;13.30;43.20
37052;DHT22;22964;52.272;13.356;2023-03-18T01:13:30;13.20;43.30
37052;DHT22;22964;52.272;13.356;2023-03-18T01:15:55;13.20;43.10
37052;DHT22;22964;52.272;13.356;2023-03-18T01:18:22;13.20;43.20
37052;DHT22;22964;52.272;13.356;2023-03-18T01:20:49;13.20;43.30
37052;DHT22;22964;52.272;13.356;2023-03-18T01:23:17;13.20;43.30
37052;DHT22;22964;52.272;13.356;2023-03-18T01:25:43;13.20;43.40
37052;DHT22;22964;52.272;13.356;2023-03-18T01:28:13;13.20;43.30
37052;DHT22;22964;52.272;13.356;2023-03-18T01:30:39;13.10;43.30
37052;DHT22;22964;52.272;13.356;2023-03-18T01:33:06;13.20;43.30
37052;DHT22;22964;52.272;13.356;2023-03-18T01:35:33;13.20;43.20
37052;DHT22;22964;52.272;13.356;2023-03-18T01:38:00;13.20;43.10
37052;DHT22;22964;52.272;13.356;2023-03-18T01:40:27;13.20;43.20
37052;DHT22;22964;52.272;13.356;2023-03-18T01:42:58;13.20;43.10
37052;DHT22;22964;52.272;13.356;2023-03-18T01:45:30;13.20;43.10
37052;DHT22;22964;52.272;13.356;2023-03-18T01:47:59;13.20;43.10
37052;DHT22;22964;52.272;13.356;2023-03-18T01:50:33;13.20;43.10
37052;DHT22;22964;52.272;13.356;2023-03-18T01:53:04;13.20;43.10
37052;DHT22;22964;52.272;13.356;2023-03-18T01:55:32;13.20;43.10
37052;DHT22;22964;52.272;13.356;2023-03-18T01:58:03;13.20;43.00
37052;DHT22;22964;52.272;13.356;2023-03-18T02:00:31;13.20;43.00
37052;DHT22;22964;52.272;13.356;2023-03-18T02:02:56;13.20;42.90
37052;DHT22;22964;52.272;13.356;2023-03-18T02:05:26;13.30;42.90
37052;DHT22;22964;52.272;13.356;2023-03-18T02:07:52;13.20;42.90
37052;DHT22;22964;52.272;13.356;2023-03-18T02:10:28;13.30;42.90
37052;DHT22;22964;52.272;13.356;2023-03-18T02:13:06;13.30;42.90
37052;DHT22;22964;52.272;13.356;2023-03-18T02:15:44;13.30;43.50
37052;DHT22;22964;52.272;13.356;2023-03-18T02:18:16;13.30;42.80
37052;DHT22;22964;52.272;13.356;2023-03-18T02:24:05;13.20;42.70
37052;DHT22;22964;52.272;13.356;2023-03-18T02:26:52;13.30;42.80
37052;DHT22;22964;52.272;13.356;2023-03-18T02:29:28;13.30;42.80
37052;DHT22;22964;52.272;13.356;2023-03-18T02:32:03;13.30;42.90
37052;DHT22;22964;52.272;13.356;2023-03-18T02:34:29;13.30;42.90
37052;DHT22;22964;52.272;13.356;2023-03-18T02:36:56;13.30;42.90
37052;DHT22;22964;52.272;13.356;2023-03-18T02:39:22;13.30;42.80
37052;DHT22;22964;52.272;13.356;2023-03-18T02:41:51;13.30;42.80
37052;DHT22;22964;52.272;13.356;2023-03-18T02:44:18;13.30;42.90
37052;DHT22;22964;52.272;13.356;2023-03-18T02:47:15;13.30;42.90
37052;DHT22;22964;52.272;13.356;2023-03-18T02:49:43;13.20;42.80
37052;DHT22;22964;52.272;13.356;2023-03-18T02:52:11;13.20;42.70
37052;DHT22;22964;52.272;13.356;2023-03-18T02:54:37;13.20;42.70
37052;DHT22;22964;52.272;13.356;2023-03-18T02:57:03;13.20;42.80
37052;DHT22;22964;52.272;13.356;2023-03-18T02:59:28;13.20;42.80
37052;DHT22;22964;52.272;13.356;2023-03-18T03:01:57;13.20;42.80
37052;DHT22;22964;52.272;13.356;2023-03-18T03:04:24;13.20;42.70
37052;DHT22;22964;52.272;13.356;2023-03-18T03:06:50;13.20;42.80
37052;DHT22;22964;52.272;13.356;2023-03-18T03:09:21;13.20;42.90
37052;DHT22;22964;52.272;13.356;2023-03-18T03:11:47;13.20;42.90
37052;DHT22;22964;52.272;13.356;2023-03-18T03:14:18;13.20;42.90
37052;DHT22;22964;52.272;13.356;2023-03-18T03:16:48;13.20;42.90
37052;DHT22;22964;52.272;13.356;2023-03-18T03:19:15;13.20;42.90
37052;DHT22;22964;52.272;13.356;2023-03-18T03:21:41;13.20;42.90
37052;DHT22;22964;52.272;13.356;2023-03-18T03:24:07;13.20;42.90
37052;DHT22;22964;52.272;13.356;2023-03-18T03:26:34;13.20;42.90
37052;DHT22;22964;52.272;13.356;2023-03-18T03:29:00;13.20;42.90
37052;DHT22;22964;52.272;13.356;2023-03-18T03:31:26;13.20;42.90
37052;DHT22;22964;52.272;13.356;2023-03-18T03:33:53;13.20;43.00
37052;DHT22;22964;52.272;13.356;2023-03-18T03:36:19;13.20;43.00
37052;DHT22;22964;52.272;13.356;2023-03-18T03:38:45;13.20;43.00
37052;DHT22;22964;52.272;13.356;2023-03-18T03:41:11;13.20;43.00
37052;DHT22;22964;52.272;13.356;2023-03-18T03:43:39;13.20;43.00
37052;DHT22;22964;52.272;13.356;2023-03-18T03:46:06;13.20;43.00
37052;DHT22;22964;52.272;13.356;2023-03-18T03:48:32;13.20;43.00
37052;DHT22;22964;52.272;13.356;2023-03-18T03:50:59;13.20;43.10
37052;DHT22;22964;52.272;13.356;2023-03-18T03:53:25;13.20;43.00
37052;DHT22;22964;52.272;13.356;2023-03-18T03:55:52;13.20;43.10
37052;DHT22;22964;52.272;13.356;2023-03-18T03:58:19;13.20;43.10
37052;DHT22;22964;52.272;13.356;2023-03-18T04:00:46;13.20;43.10
37052;DHT22;22964;52.272;13.356;2023-03-18T04:03:12;13.10;43.10
37052;DHT22;22964;52.272;13.356;2023-03-18T04:05:38;13.10;43.10
37052;DHT22;22964;52.272;13.356;2023-03-18T04:08:04;13.10;43.20
37052;DHT22;22964;52.272;13.356;2023-03-18T04:10:36;13.10;43.10
37052;DHT22;22964;52.272;13.356;2023-03-18T04:13:05;13.10;43.10
37052;DHT22;22964;52.272;13.356;2023-03-18T04:15:30;13.10;43.30
37052;DHT22;22964;52.272;13.356;2023-03-18T04:18:01;13.10;43.20
37052;DHT22;22964;52.272;13.356;2023-03-18T04:20:36;13.00;43.20
37052;DHT22;22964;52.272;13.356;2023-03-18T04:23:07;13.10;43.30
37052;DHT22;22964;52.272;13.356;2023-03-18T04:25:32;13.00;43.20
37052;DHT22;22964;52.272;13.356;2023-03-18T04:28:00;13.00;43.20
37052;DHT22;22964;52.272;13.356;2023-03-18T04:30:26;13.00;43.30
37052;DHT22;22964;52.272;13.356;2023-03-18T04:32:59;13.00;43.30
37052;DHT22;22964;52.272;13.356;2023-03-18T04:35:27;13.00;43.40
37052;DHT22;22964;52.272;13.356;2023-03-18T04:37:54;13.00;43.40
37052;DHT22;22964;52.272;13.356;2023-03-18T04:40:21;13.00;43.40
37052;DHT22;22964;52.272;13.356;2023-03-18T04:42:47;12.90;43.40
37052;DHT22;22964;52.272;13.356;2023-03-18T04:45:14;12.90;43.50
37052;DHT22;22964;52.272;13.356;2023-03-18T04:47:41;12.90;43.50
37052;DHT22;22964;52.272;13.356;2023-03-18T04:50:09;12.90;43.50
37052;DHT22;22964;52.272;13.356;2023-03-18T04:52:38;12.90;43.70
37052;DHT22;22964;52.272;13.356;2023-03-18T04:55:05;12.90;43.70
37052;DHT22;22964;52.272;13.356;2023-03-18T04:57:34;12.90;43.70
37052;DHT22;22964;52.272;13.356;2023-03-18T05:00:07;12.90;43.70
37052;DHT22;22964;52.272;13.356;2023-03-18T05:02:37;12.80;43.70
37052;DHT22;22964;52.272;13.356;2023-03-18T05:05:03;12.80;43.70
37052;DHT22;22964;52.272;13.356;2023-03-18T05:07:30;12.80;43.80
37052;DHT22;22964;52.272;13.356;2023-03-18T05:10:06;12.80;43.80
37052;DHT22;22964;52.272;13.356;2023-03-18T05:12:33;12.80;43.90
37052;DHT22;22964;52.272;13.356;2023-03-18T05:14:59;12.80;43.90
37052;DHT22;22964;52.272;13.356;2023-03-18T05:17:25;12.70;43.90
37052;DHT22;22964;52.272;13.356;2023-03-18T05:19:57;12.70;44.00
37052;DHT22;22964;52.272;13.356;2023-03-18T05:22:23;12.70;44.00
37052;DHT22;22964;52.272;13.356;2023-03-18T05:25:01;12.70;44.20
37052;DHT22;22964;52.272;13.356;2023-03-18T05:27:28;12.60;44.20
37052;DHT22;22964;52.272;13.356;2023-03-18T05:30:10;12.60;44.20
37052;DHT22;22964;52.272;13.356;2023-03-18T05:32:43;12.60;44.20
37052;DHT22;22964;52.272;13.356;2023-03-18T05:35:10;12.60;44.30
37052;DHT22;22964;52.272;13.356;2023-03-18T05:37:45;12.50;44.40
37052;DHT22;22964;52.272;13.356;2023-03-18T05:40:11;12.50;44.50
37052;DHT22;22964;52.272;13.356;2023-03-18T05:42:41;12.50;44.50
37052;DHT22;22964;52.272;13.356;2023-03-18T05:45:07;12.50;44.60
37052;DHT22;22964;52.272;13.356;2023-03-18T05:47:36;12.50;44.70
37052;DHT22;22964;52.272;13.356;2023-03-18T05:50:09;12.50;44.70
37052;DHT22;22964;52.272;13.356;2023-03-18T05:52:36;12.40;44.70
37052;DHT22;22964;52.272;13.356;2023-03-18T05:55:12;12.40;44.90
37052;DHT22;22964;52.272;13.356;2023-03-18T05:57:39;12.40;44.90
37052;DHT22;22964;52.272;13.356;2023-03-18T06:00:08;12.40;44.80
37052;DHT22;22964;52.272;13.356;2023-03-18T06:02:45;12.40;44.90
37052;DHT22;22964;52.272;13.356;2023-03-18T06:05:13;12.40;45.00
37052;DHT22;22964;52.272;13.356;2023-03-18T06:07:39;12.40;45.20
37052;DHT22;22964;52.272;13.356;2023-03-18T06:10:06;12.40;45.20
37052;DHT22;22964;52.272;13.356;2023-03-18T06:12:32;12.40;45.20
37052;DHT22;22964;52.272;13.356;2023-03-18T06:14:59;12.40;45.30
37052;DHT22;22964;52.272;13.356;2023-03-18T06:17:25;12.40;45.30
37052;DHT22;22964;52.272;13.356;2023-03-18T06:19:52;12.40;45.40
37052;DHT22;22964;52.272;13.356;2023-03-18T06:22:18;12.40;45.50
37052;DHT22;22964;52.272;13.356;2023-03-18T06:24:45;12.40;45.50
37052;DHT22;22964;52.272;13.356;2023-03-18T06:27:11;12.40;45.50
37052;DHT22;22964;52.272;13.356;2023-03-18T06:29:40;12.40;45.50
37052;DHT22;22964;52.272;13.356;2023-03-18T06:32:11;12.40;45.70
37052;DHT22;22964;52.272;13.356;2023-03-18T06:34:37;12.40;45.70
37052;DHT22;22964;52.272;13.356;2023-03-18T06:37:04;12.40;45.80
37052;DHT22;22964;52.272;13.356;2023-03-18T06:39:33;12.50;45.90
37052;DHT22;22964;52.272;13.356;2023-03-18T06:42:02;12.50;45.70
37052;DHT22;22964;52.272;13.356;2023-03-18T06:44:37;12.50;45.80
37052;DHT22;22964;52.272;13.356;2023-03-18T06:47:15;12.50;45.70
37052;DHT22;22964;52.272;13.356;2023-03-18T06:49:49;12.50;45.80
37052;DHT22;22964;52.272;13.356;2023-03-18T06:52:19;12.50;45.90
37052;DHT22;22964;52.272;13.356;2023-03-18T06:54:46;12.50;45.90
37052;DHT22;22964;52.272;13.356;2023-03-18T06:57:13;12.60;46.00
37052;DHT22;22964;52.272;13.356;2023-03-18T06:59:39;12.50;45.80
37052;DHT22;22964;52.272;13.356;2023-03-18T07:02:08;12.60;46.00
37052;DHT22;22964;52.272;13.356;2023-03-18T07:04:34;12.60;45.90
37052;DHT22;22964;52.272;13.356;2023-03-18T07:07:00;12.60;45.90
37052;DHT22;22964;52.272;13.356;2023-03-18T07:09:27;12.70;46.00
37052;DHT22;22964;52.272;13.356;2023-03-18T07:11:56;12.70;46.10
37052;DHT22;22964;52.272;13.356;2023-03-18T07:14:25;12.70;46.10
37052;DHT22;22964;52.272;13.356;2023-03-18T07:16:51;12.70;46.20
37052;DHT22;22964;52.272;13.356;2023-03-18T07:19:17;12.80;46.10
37052;DHT22;22964;52.272;13.356;2023-03-18T07:21:43;12.80;46.10
37052;DHT22;22964;52.272;13.356;2023-03-18T07:24:10;12.90;46.30
37052;DHT22;22964;52.272;13.356;2023-03-18T07:26:37;12.90;46.40
37052;DHT22;22964;52.272;13.356;2023-03-18T07:29:03;12.90;46.20
37052;DHT22;22964;52.272;13.356;2023-03-18T07:31:29;12.90;46.30
37052;DHT22;22964;52.272;13.356;2023-03-18T07:33:55;13.00;46.30
37052;DHT22;22964;52.272;13.356;2023-03-18T07:36:23;13.00;46.20
37052;DHT22;22964;52.272;13.356;2023-03-18T07:38:48;13.00;46.30
37052;DHT22;22964;52.272;13.356;2023-03-18T07:41:14;13.10;46.40
37052;DHT22;22964;52.272;13.356;2023-03-18T07:43:40;13.10;46.40
37052;DHT22;22964;52.272;13.356;2023-03-18T07:46:06;13.20;46.60
37052;DHT22;22964;52.272;13.356;2023-03-18T07:48:31;13.20;46.80
37052;DHT22;22964;52.272;13.356;2023-03-18T07:50:59;13.30;46.80
37052;DHT22;22964;52.272;13.356;2023-03-18T07:53:26;13.30;46.70
37052;DHT22;22964;52.272;13.356;2023-03-18T07:55:52;13.30;46.70
37052;DHT22;22964;52.272;13.356;2023-03-18T07:58:18;13.40;46.80
37052;DHT22;22964;52.272;13.356;2023-03-18T08:00:44;13.50;46.70
37052;DHT22;22964;52.272;13.356;2023-03-18T08:03:11;13.60;46.80
37052;DHT22;22964;52.272;13.356;2023-03-18T08:05:37;13.60;46.90
37052;DHT22;22964;52.272;13.356;2023-03-18T08:08:03;13.70;46.80
37052;DHT22;22964;52.272;13.356;2023-03-18T08:10:30;13.80;46.70
37052;DHT22;22964;52.272;13.356;2023-03-18T08:12:56;13.80;46.60
37052;DHT22;22964;52.272;13.356;2023-03-18T08:15:22;13.90;46.70
37052;DHT22;22964;52.272;13.356;2023-03-18T08:17:49;14.00;46.80
37052;DHT22;22964;52.272;13.356;2023-03-18T08:20:15;14.10;46.90
37052;DHT22;22964;52.272;13.356;2023-03-18T08:22:40;14.20;47.00
37052;DHT22;22964;52.272;13.356;2023-03-18T08:25:07;14.30;46.80
37052;DHT22;22964;52.272;13.356;2023-03-18T08:27:33;14.40;46.60
37052;DHT22;22964;52.272;13.356;2023-03-18T08:29:58;14.50;46.40
37052;DHT22;22964;52.272;13.356;2023-03-18T08:32:24;14.60;46.50
37052;DHT22;22964;52.272;13.356;2023-03-18T08:34:50;14.70;46.50
37052;DHT22;22964;52.272;13.356;2023-03-18T08:37:16;14.80;46.60
37052;DHT22;22964;52.272;13.356;2023-03-18T08:39:43;14.90;46.60
37052;DHT22;22964;52.272;13.356;2023-03-18T08:42:09;15.10;46.50
37052;DHT22;22964;52.272;13.356;2023-03-18T08:44:35;15.20;47.00
37052;DHT22;22964;52.272;13.356;2023-03-18T08:47:01;15.30;46.30
37052;DHT22;22964;52.272;13.356;2023-03-18T08:49:27;15.50;46.10
37052;DHT22;22964;52.272;13.356;2023-03-18T08:51:53;15.50;46.00
37052;DHT22;22964;52.272;13.356;2023-03-18T08:54:19;15.70;46.10
37052;DHT22;22964;52.272;13.356;2023-03-18T08:56:45;15.80;46.10
37052;DHT22;22964;52.272;13.356;2023-03-18T08:59:12;16.00;45.90
37052;DHT22;22964;52.272;13.356;2023-03-18T09:01:38;16.10;45.80
37052;DHT22;22964;52.272;13.356;2023-03-18T09:04:04;16.20;45.90
37052;DHT22;22964;52.272;13.356;2023-03-18T09:06:30;16.30;45.70
37052;DHT22;22964;52.272;13.356;2023-03-18T09:08:56;16.50;45.60
37052;DHT22;22964;52.272;13.356;2023-03-18T09:11:22;16.50;46.00
37052;DHT22;22964;52.272;13.356;2023-03-18T09:13:49;16.60;45.20
37052;DHT22;22964;52.272;13.356;2023-03-18T09:16:15;16.70;45.20
37052;DHT22;22964;52.272;13.356;2023-03-18T09:18:41;16.80;45.20
37052;DHT22;22964;52.272;13.356;2023-03-18T09:21:07;16.90;45.10
37052;DHT22;22964;52.272;13.356;2023-03-18T09:23:33;16.90;45.00
37052;DHT22;22964;52.272;13.356;2023-03-18T09:25:59;16.90;45.00
37052;DHT22;22964;52.272;13.356;2023-03-18T09:28:25;17.00;45.10
37052;DHT22;22964;52.272;13.356;2023-03-18T09:30:51;17.10;45.10
37052;DHT22;22964;52.272;13.356;2023-03-18T09:33:18;17.10;45.10
37052;DHT22;22964;52.272;13.356;2023-03-18T09:35:43;17.20;44.90
37052;DHT22;22964;52.272;13.356;2023-03-18T09:38:14;17.30;45.10
37052;DHT22;22964;52.272;13.356;2023-03-18T09:46:30;17.60;44.90
37052;DHT22;22964;52.272;13.356;2023-03-18T09:51:49;17.90;44.90
37052;DHT22;22964;52.272;13.356;2023-03-18T09:54:35;18.10;44.60
37052;DHT22;22964;52.272;13.356;2023-03-18T09:57:03;18.30;45.20
37052;DHT22;22964;52.272;13.356;2023-03-18T09:59:39;18.40;44.30
37052;DHT22;22964;52.272;13.356;2023-03-18T10:05:00;18.70;43.70
37052;DHT22;22964;52.272;13.356;2023-03-18T10:07:34;18.80;43.70
37052;DHT22;22964;52.272;13.356;2023-03-18T10:10:06;18.90;43.70
37052;DHT22;22964;52.272;13.356;2023-03-18T10:12:42;19.00;43.40
37052;DHT22;22964;52.272;13.356;2023-03-18T10:15:29;19.20;43.30
37052;DHT22;22964;52.272;13.356;2023-03-18T10:26:22;19.70;43.00
37052;DHT22;22964;52.272;13.356;2023-03-18T10:34:12;20.00;42.10
37052;DHT22;22964;52.272;13.356;2023-03-18T10:37:34;20.10;42.50
37052;DHT22;22964;52.272;13.356;2023-03-18T10:39:39;20.10;42.20
37052;DHT22;22964;52.272;13.356;2023-03-18T10:42:19;20.20;42.40
37052;DHT22;22964;52.272;13.356;2023-03-18T10:44:46;20.20;42.30
37052;DHT22;22964;52.272;13.356;2023-03-18T10:47:26;20.20;42.40
37052;DHT22;22964;52.272;13.356;2023-03-18T10:50:24;20.30;42.30
37052;DHT22;22964;52.272;13.356;2023-03-18T10:53:03;20.30;42.30
37052;DHT22;22964;52.272;13.356;2023-03-18T10:55:41;20.30;43.10
37052;DHT22;22964;52.272;13.356;2023-03-18T10:58:18;20.40;42.40
37052;DHT22;22964;52.272;13.356;2023-03-18T11:00:44;20.50;42.50
37052;DHT22;22964;52.272;13.356;2023-03-18T11:03:29;20.50;42.80
37052;DHT22;22964;52.272;13.356;2023-03-18T11:05:59;20.60;43.60
37052;DHT22;22964;52.272;13.356;2023-03-18T11:08:30;20.70;43.10
37052;DHT22;22964;52.272;13.356;2023-03-18T11:11:14;20.80;43.10
37052;DHT22;22964;52.272;13.356;2023-03-18T11:13:46;20.90;43.30
37052;DHT22;22964;52.272;13.356;2023-03-18T11:16:26;21.10;42.90
37052;DHT22;22964;52.272;13.356;2023-03-18T11:18:55;21.20;42.80
37052;DHT22;22964;52.272;13.356;2023-03-18T11:21:22;21.30;43.40
37052;DHT22;22964;52.272;13.356;2023-03-18T11:23:55;21.40;42.80
37052;DHT22;22964;52.272;13.356;2023-03-18T11:26:43;21.50;42.60
37052;DHT22;22964;52.272;13.356;2023-03-18T11:29:24;21.50;42.50
37052;DHT22;22964;52.272;13.356;2023-03-18T11:31:53;21.60;42.40
37052;DHT22;22964;52.272;13.356;2023-03-18T11:34:22;21.60;42.20
37052;DHT22;22964;52.272;13.356;2023-03-18T11:36:59;21.60;42.40
37052;DHT22;22964;52.272;13.356;2023-03-18T11:39:31;21.70;42.30
37052;DHT22;22964;52.272;13.356;2023-03-18T11:41:59;21.70;42.60
37052;DHT22;22964;52.272;13.356;2023-03-18T11:44:30;21.70;42.40
37052;DHT22;22964;52.272;13.356;2023-03-18T11:49:45;21.70;42.60
37052;DHT22;22964;52.272;13.356;2023-03-18T12:06:23;21.90;42.60
37052;DHT22;22964;52.272;13.356;2023-03-18T12:09:03;21.90;42.70
37052;DHT22;22964;52.272;13.356;2023-03-18T12:14:03;22.00;42.90
37052;DHT22;22964;52.272;13.356;2023-03-18T12:36:21;23.10;43.00
37052;DHT22;22964;52.272;13.356;2023-03-18T12:50:31;23.60;42.10
37052;DHT22;22964;52.272;13.356;2023-03-18T12:53:06;23.80;42.00
37052;DHT22;22964;52.272;13.356;2023-03-18T12:55:38;23.90;42.00
37052;DHT22;22964;52.272;13.356;2023-03-18T13:03:36;24.10;41.70
37052;DHT22;22964;52.272;13.356;2023-03-18T13:12:00;24.40;41.40
37052;DHT22;22964;52.272;13.356;2023-03-18T13:17:29;24.60;41.40
37052;DHT22;22964;52.272;13.356;2023-03-18T13:19:58;24.70;41.20
37052;DHT22;22964;52.272;13.356;2023-03-18T13:22:35;24.80;40.90
37052;DHT22;22964;52.272;13.356;2023-03-18T13:36:27;24.90;40.40
37052;DHT22;22964;52.272;13.356;2023-03-18T13:39:16;24.90;40.30
37052;DHT22;22964;52.272;13.356;2023-03-18T13:44:20;24.90;40.70
37052;DHT22;22964;52.272;13.356;2023-03-18T13:47:00;24.80;40.40
37052;DHT22;22964;52.272;13.356;2023-03-18T13:49:30;24.90;41.20
37052;DHT22;22964;52.272;13.356;2023-03-18T13:51:58;24.90;40.40
37052;DHT22;22964;52.272;13.356;2023-03-18T13:54:35;24.90;40.20
37052;DHT22;22964;52.272;13.356;2023-03-18T14:02:43;24.80;39.90
37052;DHT22;22964;52.272;13.356;2023-03-18T14:05:39;24.80;40.20
37052;DHT22;22964;52.272;13.356;2023-03-18T14:13:55;24.80;39.90
37052;DHT22;22964;52.272;13.356;2023-03-18T14:16:25;24.80;40.10
37052;DHT22;22964;52.272;13.356;2023-03-18T14:21:50;24.80;39.90
37052;DHT22;22964;52.272;13.356;2023-03-18T14:32:02;24.80;40.00
37052;DHT22;22964;52.272;13.356;2023-03-18T14:37:23;24.80;40.10
37052;DHT22;22964;52.272;13.356;2023-03-18T14:40:14;24.80;40.20
37052;DHT22;22964;52.272;13.356;2023-03-18T14:42:57;24.80;40.30
37052;DHT22;22964;52.272;13.356;2023-03-18T14:45:27;24.80;40.00
37052;DHT22;22964;52.272;13.356;2023-03-18T14:48:01;24.70;40.10
37052;DHT22;22964;52.272;13.356;2023-03-18T14:55:51;24.70;39.90
37052;DHT22;22964;52.272;13.356;2023-03-18T14:58:19;24.70;40.10
37052;DHT22;22964;52.272;13.356;2023-03-18T15:00:51;24.70;40.00
37052;DHT22;22964;52.272;13.356;2023-03-18T15:03:24;24.60;39.90
37052;DHT22;22964;52.272;13.356;2023-03-18T15:05:59;24.60;39.70
37052;DHT22;22964;52.272;13.356;2023-03-18T15:08:31;24.60;39.90
37052;DHT22;22964;52.272;13.356;2023-03-18T15:10:58;24.50;39.90
37052;DHT22;22964;52.272;13.356;2023-03-18T15:13:27;24.50;40.00
37052;DHT22;22964;52.272;13.356;2023-03-18T15:15:54;24.50;40.10
37052;DHT22;22964;52.272;13.356;2023-03-18T15:18:37;24.40;40.00
37052;DHT22;22964;52.272;13.356;2023-03-18T15:21:25;24.40;40.10
37052;DHT22;22964;52.272;13.356;2023-03-18T15:24:01;24.30;40.00
37052;DHT22;22964;52.272;13.356;2023-03-18T15:26:29;24.30;40.10
37052;DHT22;22964;52.272;13.356;2023-03-18T15:29:00;24.30;40.00
37052;DHT22;22964;52.272;13.356;2023-03-18T15:31:29;24.20;39.90
37052;DHT22;22964;52.272;13.356;2023-03-18T15:34:06;24.20;39.90
37052;DHT22;22964;52.272;13.356;2023-03-18T15:36:42;24.00;40.20
37052;DHT22;22964;52.272;13.356;2023-03-18T15:41:43;23.80;40.60
37052;DHT22;22964;52.272;13.356;2023-03-18T15:44:14;23.70;40.50
37052;DHT22;22964;52.272;13.356;2023-03-18T15:46:45;23.70;40.70
37052;DHT22;22964;52.272;13.356;2023-03-18T15:49:11;23.60;41.00
37052;DHT22;22964;52.272;13.356;2023-03-18T15:51:45;23.60;41.40
37052;DHT22;22964;52.272;13.356;2023-03-18T15:54:25;23.40;41.70
37052;DHT22;22964;52.272;13.356;2023-03-18T15:56:54;23.40;41.90
37052;DHT22;22964;52.272;13.356;2023-03-18T15:59:26;23.30;41.70
37052;DHT22;22964;52.272;13.356;2023-03-18T16:01:59;23.20;41.70
37052;DHT22;22964;52.272;13.356;2023-03-18T16:04:29;23.20;41.80
37052;DHT22;22964;52.272;13.356;2023-03-18T16:06:57;23.10;41.70
37052;DHT22;22964;52.272;13.356;2023-03-18T16:09:25;23.00;41.60
37052;DHT22;22964;52.272;13.356;2023-03-18T16:14:29;22.90;41.80
37052;DHT22;22964;52.272;13.356;2023-03-18T16:16:57;22.80;42.00
37052;DHT22;22964;52.272;13.356;2023-03-18T16:19:25;22.80;42.00
37052;DHT22;22964;52.272;13.356;2023-03-18T16:21:54;22.70;42.00
37052;DHT22;22964;52.272;13.356;2023-03-18T16:24:20;22.60;42.20
37052;DHT22;22964;52.272;13.356;2023-03-18T16:26:46;22.60;42.20
37052;DHT22;22964;52.272;13.356;2023-03-18T16:29:14;22.50;42.30
37052;DHT22;22964;52.272;13.356;2023-03-18T16:31:40;22.40;42.40
37052;DHT22;22964;52.272;13.356;2023-03-18T16:34:16;22.30;42.50
37052;DHT22;22964;52.272;13.356;2023-03-18T16:36:44;22.20;42.70
37052;DHT22;22964;52.272;13.356;2023-03-18T16:39:24;22.20;42.60
37052;DHT22;22964;52.272;13.356;2023-03-18T16:41:52;22.10;42.90
37052;DHT22;22964;52.272;13.356;2023-03-18T16:44:21;22.10;42.70
37052;DHT22;22964;52.272;13.356;2023-03-18T16:46:55;22.00;42.90
37052;DHT22;22964;52.272;13.356;2023-03-18T16:49:24;21.90;43.10
37052;DHT22;22964;52.272;13.356;2023-03-18T16:51:50;21.80;43.00
37052;DHT22;22964;52.272;13.356;2023-03-18T16:54:17;21.80;43.10
37052;DHT22;22964;52.272;13.356;2023-03-18T16:56:44;21.70;43.10
37052;DHT22;22964;52.272;13.356;2023-03-18T16:59:14;21.70;43.20
37052;DHT22;22964;52.272;13.356;2023-03-18T17:01:41;21.60;43.40
37052;DHT22;22964;52.272;13.356;2023-03-18T17:04:20;21.50;43.40
37052;DHT22;22964;52.272;13.356;2023-03-18T17:06:47;21.50;43.60
37052;DHT22;22964;52.272;13.356;2023-03-18T17:09:13;21.40;43.40
37052;DHT22;22964;52.272;13.356;2023-03-18T17:11:39;21.30;43.50
37052;DHT22;22964;52.272;13.356;2023-03-18T17:14:06;21.20;43.60
37052;DHT22;22964;52.272;13.356;2023-03-18T17:16:34;21.10;43.50
37052;DHT22;22964;52.272;13.356;2023-03-18T17:19:00;21.00;43.60
37052;DHT22;22964;52.272;13.356;2023-03-18T17:21:26;21.00;43.70
37052;DHT22;22964;52.272;13.356;2023-03-18T17:23:53;20.90;43.80
37052;DHT22;22964;52.272;13.356;2023-03-18T17:26:20;20.90;44.00
37052;DHT22;22964;52.272;13.356;2023-03-18T17:28:48;20.70;44.00
37052;DHT22;22964;52.272;13.356;2023-03-18T17:31:14;20.70;44.10
37052;DHT22;22964;52.272;13.356;2023-03-18T17:33:41;20.60;44.20
37052;DHT22;22964;52.272;13.356;2023-03-18T17:36:07;20.50;44.30
37052;DHT22;22964;52.272;13.356;2023-03-18T17:38:34;20.50;44.40
37052;DHT22;22964;52.272;13.356;2023-03-18T17:41:01;20.40;44.50
37052;DHT22;22964;52.272;13.356;2023-03-18T17:43:31;20.30;44.60
37052;DHT22;22964;52.272;13.356;2023-03-18T17:45:58;20.20;44.80
37052;DHT22;22964;52.272;13.356;2023-03-18T17:48:26;20.10;45.00
37052;DHT22;22964;52.272;13.356;2023-03-18T17:50:55;20.00;45.10